Time;durP1;ratioP1;P1;durP2;ratioP2;P2;SDS_P1;SDS_P2;PMS_P1;PMS_P2;Temp;Humidity;BMP_temperature;BMP_pressure;BME280_temperature;BME280_humidity;BME280_pressure;Samples;Min_cycle;Max_cycle;Signal;HPM_P1;HPM_P2
2022/11/25 00:00:48;;;;;;;13.00;3.00;;;7.80;99.90;;;;;;5113806;27;20121;-47
2022/11/25 00:03:14;;;;;;;15.25;3.25;;;8.10;99.90;;;;;;5113872;27;20503;-48
2022/11/25 00:05:39;;;;;;;18.25;3.47;;;8.20;99.90;;;;;;5112960;27;20479;-46
2022/11/25 00:08:05;;;;;;;17.92;3.38;;;7.90;99.90;;;;;;5113447;27;20092;-45
2022/11/25 00:10:31;;;;;;;16.00;3.30;;;8.20;99.90;;;;;;5114115;27;20069;-47
2022/11/25 00:12:56;;;;;;;14.25;2.85;;;8.00;99.90;;;;;;5094728;28;20031;-46
2022/11/25 00:15:22;;;;;;;18.48;3.65;;;8.00;99.90;;;;;;5111639;27;20027;-46
2022/11/25 00:17:48;;;;;;;16.27;3.15;;;8.40;99.90;;;;;;5113751;27;20023;-47
2022/11/25 00:20:13;;;;;;;17.13;3.10;;;8.50;99.90;;;;;;5096020;27;20043;-47
2022/11/25 00:22:39;;;;;;;16.88;3.15;;;7.90;99.90;;;;;;5113931;27;20110;-46
2022/11/25 00:25:05;;;;;;;15.07;3.42;;;8.20;99.90;;;;;;5113805;27;20035;-47
2022/11/25 00:27:31;;;;;;;12.65;2.92;;;8.10;99.90;;;;;;5114606;27;20058;-47
2022/11/25 00:29:56;;;;;;;13.77;2.90;;;8.30;99.90;;;;;;5113038;27;20039;-47
2022/11/25 00:32:22;;;;;;;12.75;3.40;;;7.90;99.90;;;;;;5096542;27;20035;-47
2022/11/25 00:34:48;;;;;;;12.68;3.40;;;8.30;99.90;;;;;;5095265;28;20062;-46
2022/11/25 00:37:14;;;;;;;16.23;3.83;;;8.50;99.90;;;;;;5115228;27;20036;-44
2022/11/25 00:39:39;;;;;;;14.75;3.30;;;8.10;99.90;;;;;;5114305;27;20122;-47
2022/11/25 00:44:49;;;;;;;15.38;3.72;;;8.00;99.90;;;;;;5112358;28;20043;-46
2022/11/25 00:47:17;;;;;;;14.68;3.10;;;8.00;99.90;;;;;;5112775;28;20039;-47
2022/11/25 00:49:48;;;;;;;14.43;3.15;;;8.10;99.90;;;;;;5113014;27;20044;-48
2022/11/25 00:52:16;;;;;;;17.67;3.45;;;8.00;99.90;;;;;;5111919;28;20031;-47
2022/11/25 00:54:46;;;;;;;16.73;3.78;;;8.10;99.90;;;;;;5113280;27;20474;-48
2022/11/25 00:57:13;;;;;;;14.38;3.53;;;8.30;99.90;;;;;;5112950;27;20092;-47
2022/11/25 00:59:39;;;;;;;12.95;3.20;;;8.40;99.90;;;;;;5112907;27;20540;-46
2022/11/25 01:02:04;;;;;;;16.92;3.85;;;8.40;99.90;;;;;;5113155;27;20040;-44
2022/11/25 01:04:30;;;;;;;12.32;3.03;;;8.30;99.90;;;;;;5112374;28;20051;-47
2022/11/25 01:06:58;;;;;;;18.00;3.72;;;8.20;99.90;;;;;;5113608;27;20039;-48
2022/11/25 01:09:24;;;;;;;15.02;3.00;;;8.30;99.90;;;;;;5112827;27;20100;-48
2022/11/25 01:11:51;;;;;;;18.23;3.63;;;8.20;99.90;;;;;;5113477;27;20437;-45
2022/11/25 01:14:20;;;;;;;18.33;3.53;;;7.90;99.90;;;;;;5094483;28;20046;-48
2022/11/25 01:16:46;;;;;;;16.23;3.45;;;8.20;99.90;;;;;;5110360;27;20043;-46
2022/11/25 01:19:12;;;;;;;19.80;4.20;;;8.70;99.90;;;;;;5113005;27;20042;-48
2022/11/25 01:21:38;;;;;;;14.40;3.15;;;8.30;99.90;;;;;;5112853;27;20118;-48
2022/11/25 01:24:05;;;;;;;15.40;3.75;;;8.10;99.90;;;;;;5114441;27;20042;-45
2022/11/25 01:26:32;;;;;;;15.15;3.35;;;8.00;99.90;;;;;;5111949;27;20467;-50
2022/11/25 01:29:00;;;;;;;18.23;3.90;;;7.80;99.90;;;;;;5114285;27;20047;-45
2022/11/25 01:31:28;;;;;;;19.15;3.60;;;7.90;99.90;;;;;;5111897;27;21144;-45
2022/11/25 01:33:57;;;;;;;17.40;3.40;;;7.70;99.90;;;;;;5111660;27;20035;-46
2022/11/25 01:36:23;;;;;;;19.85;3.13;;;7.90;99.90;;;;;;5111643;27;20035;-45
2022/11/25 01:38:51;;;;;;;16.70;3.22;;;7.90;99.90;;;;;;5112030;28;20483;-46
2022/11/25 01:41:18;;;;;;;18.35;3.88;;;8.20;99.90;;;;;;5111948;27;20110;-45
2022/11/25 01:44:19;;;;;;;12.30;3.40;;;8.50;99.90;;;;;;5093383;28;20039;-45
2022/11/25 01:46:56;;;;;;;21.70;3.85;;;7.80;99.90;;;;;;5094411;28;20414;-46
2022/11/25 01:49:30;;;;;;;17.92;3.83;;;7.90;99.90;;;;;;5111732;27;20039;-49
2022/11/25 01:52:27;;;;;;;21.35;4.38;;;7.70;99.90;;;;;;5111747;27;20040;-46
2022/11/25 01:55:05;;;;;;;17.60;3.78;;;7.70;99.90;;;;;;5113022;27;20472;-48
2022/11/25 01:57:39;;;;;;;16.95;3.50;;;7.40;99.90;;;;;;5112081;27;20183;-46
2022/11/25 02:00:06;;;;;;;;;;;8.00;99.90;;;;;;5113559;27;20039;-49
2022/11/25 02:02:32;;;;;;;18.33;3.38;;;7.70;99.90;;;;;;5112325;27;19927;-48
2022/11/25 02:05:01;;;;;;;17.85;4.00;;;7.70;99.90;;;;;;5111758;27;20035;-47
2022/11/25 02:07:36;;;;;;;12.93;3.10;;;8.00;99.90;;;;;;5112168;27;20074;-45
2022/11/25 02:10:10;;;;;;;16.90;3.95;;;7.40;99.90;;;;;;5113225;27;20027;-48
2022/11/25 02:12:39;;;;;;;20.42;4.00;;;7.40;99.90;;;;;;5112404;27;20040;-47
2022/11/25 02:15:05;;;;;;;17.65;3.72;;;7.90;99.90;;;;;;5113562;27;20114;-47
2022/11/25 02:17:31;;;;;;;20.80;4.28;;;7.90;99.90;;;;;;5110869;28;20110;-49
2022/11/25 02:20:05;;;;;;;17.75;3.88;;;8.30;99.90;;;;;;5092871;28;20114;-46
2022/11/25 02:22:50;;;;;;;21.23;3.70;;;7.70;99.90;;;;;;5109772;28;20062;-47
2022/11/25 02:25:28;;;;;;;17.35;3.95;;;8.00;99.90;;;;;;5147986;27;20481;-47
2022/11/25 02:28:08;;;;;;;24.00;4.00;;;8.00;99.90;;;;;;5148549;27;20402;-46
2022/11/25 02:30:34;;;;;;;20.70;3.78;;;7.90;99.90;;;;;;5148431;27;20038;-47
2022/11/25 02:33:00;;;;;;;18.65;4.25;;;8.60;99.90;;;;;;5148381;27;20039;-46
2022/11/25 02:35:30;;;;;;;21.13;4.72;;;8.30;99.90;;;;;;5128960;27;20509;-46
2022/11/25 02:38:09;;;;;;;18.92;4.10;;;8.00;99.90;;;;;;5148480;27;20042;-49
2022/11/25 02:41:01;;;;;;;18.90;4.70;;;8.20;99.90;;;;;;5129373;27;20279;-47
2022/11/25 02:43:28;;;;;;;12.65;4.03;;;7.80;99.90;;;;;;5146278;27;20046;-49
2022/11/25 02:46:23;;;;;;;17.02;3.67;;;8.30;99.90;;;;;;5147970;27;20057;-46
2022/11/25 02:48:51;;;;;;;17.90;3.78;;;8.20;99.90;;;;;;5125198;27;20390;-48
2022/11/25 02:51:20;;;;;;;18.17;3.80;;;7.70;99.90;;;;;;5129642;27;20570;-47
2022/11/25 02:53:46;;;;;;;19.48;4.15;;;8.30;99.90;;;;;;5148064;27;20115;-49
2022/11/25 02:56:13;;;;;;;20.27;3.95;;;7.90;99.90;;;;;;5148116;27;20118;-48
2022/11/25 02:58:39;;;;;;;20.88;4.88;;;8.30;99.90;;;;;;5148370;27;20062;-47
2022/11/25 03:01:05;;;;;;;21.40;4.38;;;7.70;99.90;;;;;;5148530;27;20042;-47
2022/11/25 03:03:31;;;;;;;20.67;4.50;;;8.10;99.90;;;;;;5147730;27;20474;-48
2022/11/25 03:05:57;;;;;;;21.10;4.68;;;7.70;99.90;;;;;;5147186;27;20084;-47
2022/11/25 03:08:23;;;;;;;17.35;4.45;;;8.10;99.90;;;;;;5147651;27;20037;-46
2022/11/25 03:10:48;;;;;;;19.92;4.43;;;8.20;99.90;;;;;;5147032;27;20542;-47
2022/11/25 03:13:14;;;;;;;19.85;4.93;;;8.00;99.90;;;;;;5147484;27;20035;-49
2022/11/25 03:15:40;;;;;;;18.52;4.72;;;7.70;99.90;;;;;;5147717;27;20035;-50
2022/11/25 03:18:06;;;;;;;20.80;4.65;;;7.70;99.90;;;;;;5147212;27;20065;-47
2022/11/25 03:20:34;;;;;;;19.77;4.82;;;8.00;99.90;;;;;;5128889;27;20120;-50
2022/11/25 03:22:59;;;;;;;20.70;5.72;;;7.80;99.90;;;;;;5147157;27;20121;-46
2022/11/25 03:25:25;;;;;;;17.13;4.93;;;8.20;99.90;;;;;;5146826;27;20130;-46
2022/11/25 03:27:51;;;;;;;21.58;4.90;;;7.90;99.90;;;;;;5147285;27;20046;-47
2022/11/25 03:30:20;;;;;;;22.63;4.97;;;7.70;99.90;;;;;;5127692;27;20489;-47
2022/11/25 03:32:45;;;;;;;17.33;4.75;;;8.10;99.90;;;;;;5141285;27;20092;-46
2022/11/25 03:35:12;;;;;;;25.52;4.90;;;7.80;99.90;;;;;;5140995;27;20043;-47
2022/11/25 03:37:38;;;;;;;21.30;5.40;;;8.10;99.90;;;;;;5133350;27;20088;-47
2022/11/25 03:40:05;;;;;;;23.58;4.90;;;8.20;99.90;;;;;;5132993;27;20035;-47
2022/11/25 03:42:31;;;;;;;17.80;5.00;;;8.20;99.90;;;;;;5133103;27;20119;-46
2022/11/25 03:44:57;;;;;;;21.52;4.93;;;8.30;99.90;;;;;;5131292;27;20039;-47
2022/11/25 03:47:23;;;;;;;16.45;4.50;;;8.00;99.90;;;;;;5133153;27;20118;-46
2022/11/25 03:49:49;;;;;;;22.80;5.07;;;8.10;99.90;;;;;;5132863;27;20042;-47
2022/11/25 03:52:14;;;;;;;22.25;4.88;;;7.70;99.90;;;;;;5112997;27;20152;-46
2022/11/25 03:54:40;;;;;;;23.33;5.50;;;7.90;99.90;;;;;;5132643;27;20391;-52
2022/11/25 03:57:06;;;;;;;15.18;4.85;;;8.40;99.90;;;;;;5114148;27;20035;-47
2022/11/25 03:59:32;;;;;;;17.05;4.50;;;7.90;99.90;;;;;;5132978;27;20046;-46
2022/11/25 04:01:57;;;;;;;17.23;5.40;;;7.80;99.90;;;;;;5132642;27;20115;-47
2022/11/25 04:04:23;;;;;;;20.60;5.25;;;8.10;99.90;;;;;;5133015;27;20079;-46
2022/11/25 04:06:49;;;;;;;22.75;5.80;;;8.40;99.90;;;;;;5133056;27;20035;-48
2022/11/25 04:09:15;;;;;;;16.85;5.07;;;7.90;99.90;;;;;;5132880;27;20043;-50
2022/11/25 04:14:25;;;;;;;18.52;5.65;;;8.40;99.90;;;;;;5132510;27;20054;-47
2022/11/25 04:16:51;;;;;;;24.83;6.00;;;8.20;99.90;;;;;;5132481;27;20038;-46
2022/11/25 04:19:17;;;;;;;24.70;4.93;;;7.80;99.90;;;;;;5133088;27;20083;-50
2022/11/25 04:21:42;;;;;;;19.48;5.30;;;8.20;99.90;;;;;;5132566;27;20470;-46
2022/11/25 04:24:08;;;;;;;20.42;6.75;;;7.70;99.90;;;;;;5132092;27;21273;-49
2022/11/25 04:26:34;;;;;;;20.92;5.10;;;8.30;99.90;;;;;;5132049;27;20039;-51
2022/11/25 04:28:59;;;;;;;18.25;5.63;;;8.40;99.90;;;;;;5132375;27;20027;-47
2022/11/25 04:31:25;;;;;;;19.92;5.38;;;8.20;99.90;;;;;;5114258;27;20039;-48
2022/11/25 04:33:51;;;;;;;18.75;5.43;;;8.30;99.90;;;;;;5132642;27;20049;-47
2022/11/25 04:36:16;;;;;;;21.63;5.43;;;7.80;99.90;;;;;;5131717;27;20031;-47
2022/11/25 04:38:43;;;;;;;21.20;5.57;;;8.50;99.90;;;;;;5132189;27;20035;-47
2022/11/25 04:41:08;;;;;;;25.50;5.97;;;8.50;99.90;;;;;;5096395;27;20047;-48
2022/11/25 04:43:34;;;;;;;20.52;5.32;;;8.50;99.90;;;;;;5131992;27;20406;-49
2022/11/25 04:46:01;;;;;;;18.65;5.50;;;8.10;99.90;;;;;;5131662;27;20423;-45
2022/11/25 04:48:27;;;;;;;21.35;6.32;;;8.30;99.90;;;;;;5130982;27;20092;-46
2022/11/25 04:50:53;;;;;;;18.90;5.32;;;8.40;99.90;;;;;;5131777;27;20034;-47
2022/11/25 04:53:19;;;;;;;21.15;6.10;;;8.20;99.90;;;;;;5096314;27;20047;-47
2022/11/25 04:55:45;;;;;;;19.10;5.20;;;8.30;99.90;;;;;;5113203;27;20039;-49
2022/11/25 04:58:11;;;;;;;21.88;6.20;;;8.00;99.90;;;;;;5131807;27;20173;-50
2022/11/25 05:00:37;;;;;;;20.02;6.03;;;8.30;99.90;;;;;;5131827;27;20608;-47
2022/11/25 05:03:02;;;;;;;20.33;6.28;;;8.30;99.90;;;;;;5131699;27;20059;-50
2022/11/25 05:05:28;;;;;;;25.20;6.75;;;8.20;99.90;;;;;;5131338;27;20373;-48
2022/11/25 05:07:55;;;;;;;22.55;6.60;;;8.20;99.90;;;;;;5131533;27;20035;-47
2022/11/25 05:10:20;;;;;;;19.35;6.43;;;8.40;99.90;;;;;;5131546;27;20412;-47
2022/11/25 05:12:46;;;;;;;20.75;6.05;;;7.60;99.90;;;;;;5131450;27;20035;-47
2022/11/25 05:15:12;;;;;;;27.33;6.55;;;8.30;99.90;;;;;;5130957;27;20482;-47
2022/11/25 05:17:38;;;;;;;23.42;6.72;;;8.40;99.90;;;;;;5096953;27;20031;-49
2022/11/25 05:20:05;;;;;;;21.08;5.93;;;8.30;99.90;;;;;;5131754;27;20050;-47
2022/11/25 05:22:32;;;;;;;19.83;6.35;;;8.00;99.90;;;;;;5112811;27;20097;-47
2022/11/25 05:24:58;;;;;;;18.40;6.18;;;8.30;99.90;;;;;;5130684;27;20058;-47
2022/11/25 05:27:25;;;;;;;18.77;6.20;;;8.50;99.90;;;;;;5131295;27;20549;-48
2022/11/25 05:29:50;;;;;;;19.67;7.03;;;8.50;99.90;;;;;;5131432;27;20031;-48
2022/11/25 05:32:17;;;;;;;20.08;7.30;;;7.80;99.90;;;;;;5131112;27;20035;-46
2022/11/25 05:34:43;;;;;;;20.88;6.88;;;7.90;99.90;;;;;;5130735;27;20035;-46
2022/11/25 05:37:11;;;;;;;23.25;7.25;;;8.10;99.90;;;;;;5131041;27;20062;-49
2022/11/25 05:39:37;;;;;;;19.38;7.25;;;8.60;99.90;;;;;;5129824;27;20071;-48
2022/11/25 05:42:03;;;;;;;18.38;6.93;;;8.20;99.90;;;;;;5130723;27;20074;-49
2022/11/25 05:44:28;;;;;;;20.02;6.75;;;8.40;99.90;;;;;;5130826;27;21260;-46
2022/11/25 05:46:54;;;;;;;24.25;6.72;;;8.30;99.90;;;;;;5130892;27;20474;-48
2022/11/25 05:49:20;;;;;;;20.77;6.53;;;8.60;99.90;;;;;;5130168;27;20050;-46
2022/11/25 05:51:46;;;;;;;21.55;6.90;;;8.20;99.90;;;;;;5130858;27;20031;-47
2022/11/25 05:54:12;;;;;;;20.92;7.18;;;8.50;99.90;;;;;;5130733;27;20035;-46
2022/11/25 05:56:38;;;;;;;19.58;6.78;;;8.20;99.90;;;;;;5130486;27;20043;-46
2022/11/25 05:59:04;;;;;;;16.67;6.70;;;8.50;99.90;;;;;;5130251;27;20039;-49
2022/11/25 06:01:31;;;;;;;20.52;5.70;;;8.10;99.90;;;;;;5130670;27;20031;-46
2022/11/25 06:04:02;;;;;;;20.65;6.38;;;8.60;99.90;;;;;;5112572;27;20092;-48
2022/11/25 06:06:28;;;;;;;19.50;5.75;;;8.40;99.90;;;;;;5130516;27;20985;-49
2022/11/25 06:08:53;;;;;;;22.35;6.22;;;8.40;99.90;;;;;;5130560;27;20031;-47
2022/11/25 06:11:19;;;;;;;20.08;5.07;;;7.90;99.90;;;;;;5111681;27;20449;-47
2022/11/25 06:13:45;;;;;;;19.33;6.07;;;8.20;99.90;;;;;;5130404;27;20047;-47
2022/11/25 06:16:17;;;;;;;19.83;5.68;;;8.10;99.90;;;;;;5130440;27;20499;-47
2022/11/25 06:18:43;;;;;;;22.80;5.85;;;7.50;99.90;;;;;;5130194;27;20031;-48
2022/11/25 06:21:10;;;;;;;15.07;4.97;;;8.40;99.90;;;;;;5130101;27;20154;-48
2022/11/25 06:23:36;;;;;;;18.30;5.78;;;7.70;99.90;;;;;;5129648;28;20042;-48
2022/11/25 06:26:08;;;;;;;18.42;5.28;;;8.00;99.90;;;;;;5128992;28;20043;-47
2022/11/25 06:28:34;;;;;;;18.45;5.60;;;7.60;99.90;;;;;;5130545;28;20124;-48
2022/11/25 06:31:08;;;;;;;15.63;5.32;;;7.40;99.90;;;;;;5130021;28;20065;-48
2022/11/25 06:33:33;;;;;;;24.25;5.80;;;8.00;99.90;;;;;;5130374;28;20054;-48
2022/11/25 06:36:02;;;;;;;17.73;5.50;;;7.70;99.90;;;;;;5129881;28;20390;-47
2022/11/25 06:38:28;;;;;;;17.40;5.05;;;8.00;99.90;;;;;;5130268;28;20062;-47
2022/11/25 06:41:02;;;;;;;21.38;5.32;;;7.70;99.90;;;;;;5130176;28;20039;-49
2022/11/25 06:43:28;;;;;;;23.40;5.60;;;7.60;99.90;;;;;;5130203;28;20088;-47
2022/11/25 06:45:53;;;;;;;23.05;5.30;;;7.90;99.90;;;;;;5130198;28;20394;-46
2022/11/25 06:48:19;;;;;;;20.67;5.72;;;7.70;99.90;;;;;;5112350;28;20043;-49
2022/11/25 06:50:53;;;;;;;15.93;5.15;;;7.70;99.90;;;;;;5130900;28;20126;-47
2022/11/25 06:53:19;;;;;;;19.25;5.20;;;8.00;99.90;;;;;;5130131;28;20031;-47
2022/11/25 06:55:45;;;;;;;18.05;5.03;;;8.00;99.90;;;;;;5130165;28;20540;-48
2022/11/25 06:58:10;;;;;;;19.85;4.97;;;7.80;99.90;;;;;;5130144;28;20068;-48
2022/11/25 07:00:36;;;;;;;16.23;5.10;;;7.20;99.90;;;;;;5111384;28;20047;-48
2022/11/25 07:03:01;;;;;;;17.58;4.68;;;7.70;99.90;;;;;;5130195;28;20080;-48
2022/11/25 07:05:27;;;;;;;12.63;4.43;;;6.80;99.90;;;;;;5126974;28;20056;-50
2022/11/25 07:07:53;;;;;;;19.50;5.57;;;7.80;99.90;;;;;;5130114;28;20044;-49
2022/11/25 07:10:18;;;;;;;16.35;4.95;;;7.60;99.90;;;;;;5130692;27;20043;-47
2022/11/25 07:12:44;;;;;;;23.15;5.53;;;7.50;99.90;;;;;;5133259;27;20028;-46
2022/11/25 07:15:11;;;;;;;19.30;5.25;;;7.60;99.90;;;;;;5133832;27;20043;-46
2022/11/25 07:17:36;;;;;;;17.40;5.22;;;7.70;99.90;;;;;;5133766;27;20066;-46
2022/11/25 07:20:02;;;;;;;15.88;4.50;;;7.60;99.90;;;;;;5133433;27;20721;-45
2022/11/25 07:22:28;;;;;;;15.45;4.85;;;7.30;99.90;;;;;;5115211;27;20043;-48
2022/11/25 07:24:54;;;;;;;16.55;4.80;;;7.10;99.90;;;;;;5132922;27;20085;-47
2022/11/25 07:27:19;;;;;;;12.00;4.43;;;8.20;99.90;;;;;;5133469;27;20059;-46
2022/11/25 07:29:46;;;;;;;15.68;4.75;;;7.00;99.90;;;;;;5133262;27;20458;-47
2022/11/25 07:32:12;;;;;;;17.40;5.53;;;7.40;99.90;;;;;;5133480;27;20383;-47
2022/11/25 07:34:38;;;;;;;17.27;4.55;;;7.40;99.90;;;;;;5133234;27;20062;-47
2022/11/25 07:37:03;;;;;;;16.23;4.65;;;6.80;99.90;;;;;;5132703;27;20035;-48
2022/11/25 07:39:29;;;;;;;16.75;5.13;;;7.30;99.90;;;;;;5133271;27;20039;-47
2022/11/25 07:41:55;;;;;;;18.35;5.10;;;6.90;99.90;;;;;;5132936;27;20039;-47
2022/11/25 07:44:21;;;;;;;17.08;5.25;;;7.20;99.90;;;;;;5132828;27;20035;-46
2022/11/25 07:46:48;;;;;;;14.13;5.38;;;7.30;99.90;;;;;;5132818;27;20179;-48
2022/11/25 07:49:17;;;;;;;16.98;4.82;;;6.70;99.90;;;;;;5132614;27;20039;-50
2022/11/25 07:51:52;;;;;;;17.08;5.38;;;7.40;99.90;;;;;;5113563;27;20114;-48
2022/11/25 07:54:18;;;;;;;12.43;5.00;;;7.20;99.90;;;;;;5125279;27;20051;-48
2022/11/25 07:56:44;;;;;;;14.40;4.78;;;7.10;99.90;;;;;;5130760;27;20126;-48
2022/11/25 07:59:13;;;;;;;11.07;4.68;;;7.20;99.90;;;;;;5132601;27;20071;-47
2022/11/25 08:01:40;;;;;;;12.40;4.72;;;5.90;99.90;;;;;;5120692;27;20513;-49
2022/11/25 08:04:07;;;;;;;14.05;4.65;;;7.40;99.90;;;;;;5121856;27;20051;-48
2022/11/25 08:06:39;;;;;;;18.48;5.03;;;7.30;99.90;;;;;;5122116;27;20046;-48
2022/11/25 08:09:05;;;;;;;13.80;5.78;;;7.00;99.90;;;;;;5122427;27;20038;-47
2022/11/25 08:11:31;;;;;;;16.58;5.43;;;7.30;99.90;;;;;;5120437;27;20220;-48
2022/11/25 08:13:58;;;;;;;16.45;5.53;;;7.50;99.90;;;;;;5103854;27;20050;-47
2022/11/25 08:16:26;;;;;;;14.50;4.95;;;7.20;99.90;;;;;;5123267;27;20466;-51
2022/11/25 08:18:53;;;;;;;12.27;4.80;;;7.30;99.90;;;;;;5121936;27;20039;-46
2022/11/25 08:21:19;;;;;;;14.23;5.68;;;7.00;99.90;;;;;;5103234;27;20043;-47
2022/11/25 08:23:47;;;;;;;19.60;5.90;;;6.70;99.90;;;;;;5120624;27;20050;-47
2022/11/25 08:26:37;;;;;;;14.02;5.07;;;7.30;99.90;;;;;;5120202;27;20122;-46
2022/11/25 08:29:05;;;;;;;16.70;5.70;;;7.20;99.90;;;;;;5086454;27;20155;-47
2022/11/25 08:31:33;;;;;;;18.02;6.82;;;7.40;99.90;;;;;;5122397;27;20043;-48
2022/11/25 08:33:59;;;;;;;14.32;5.72;;;7.20;99.90;;;;;;5122233;27;20042;-46
2022/11/25 08:36:27;;;;;;;14.20;5.97;;;7.10;99.90;;;;;;5118676;27;20047;-46
2022/11/25 08:38:58;;;;;;;17.65;7.47;;;8.10;99.90;;;;;;5122652;27;20055;-48
2022/11/25 08:41:28;;;;;;;16.08;6.85;;;7.70;99.90;;;;;;5122274;27;20049;-49
2022/11/25 08:43:54;;;;;;;19.42;6.93;;;7.90;99.90;;;;;;5122501;27;20138;-47
2022/11/25 08:46:26;;;;;;;17.55;6.97;;;7.80;99.90;;;;;;5120769;27;20114;-47
2022/11/25 08:48:52;;;;;;;13.68;6.60;;;7.80;99.90;;;;;;5104056;27;20035;-46
2022/11/25 08:51:20;;;;;;;15.60;6.68;;;7.60;99.90;;;;;;5121897;27;20469;-46
2022/11/25 08:53:47;;;;;;;14.65;7.03;;;7.70;99.90;;;;;;5092637;27;20038;-49
2022/11/25 08:56:13;;;;;;;15.95;7.35;;;7.00;99.90;;;;;;5103667;27;20036;-51
2022/11/25 08:58:39;;;;;;;16.45;7.53;;;7.40;99.90;;;;;;5112420;27;20041;-47
2022/11/25 09:01:05;;;;;;;19.02;7.65;;;8.10;99.90;;;;;;5117446;27;20617;-50
2022/11/25 09:03:34;;;;;;;19.52;7.82;;;8.00;99.90;;;;;;5118278;27;20031;-49
2022/11/25 09:06:01;;;;;;;16.80;7.57;;;8.40;99.90;;;;;;5117778;27;20035;-47
2022/11/25 09:08:26;;;;;;;14.45;7.43;;;7.90;99.90;;;;;;5101348;27;20122;-50
2022/11/25 09:10:52;;;;;;;16.48;7.82;;;7.60;99.90;;;;;;5118455;27;20110;-47
2022/11/25 09:13:18;;;;;;;17.67;7.75;;;7.60;99.90;;;;;;5120242;27;20031;-47
2022/11/25 09:15:44;;;;;;;15.10;7.80;;;8.20;99.90;;;;;;5100888;27;20085;-47
2022/11/25 09:18:10;;;;;;;15.68;7.80;;;8.10;99.90;;;;;;5119455;27;20035;-47
2022/11/25 09:20:40;;;;;;;16.25;7.32;;;8.70;99.90;;;;;;5117510;27;20091;-50
2022/11/25 09:23:07;;;;;;;19.20;7.93;;;7.60;99.90;;;;;;5117248;27;20038;-46
2022/11/25 09:25:33;;;;;;;18.98;7.97;;;7.90;99.90;;;;;;5100822;27;20130;-48
2022/11/25 09:27:59;;;;;;;19.75;7.40;;;8.30;99.90;;;;;;5100432;27;23330;-51
2022/11/25 09:30:25;;;;;;;13.05;6.60;;;8.30;99.90;;;;;;5118462;27;20309;-47
2022/11/25 09:32:53;;;;;;;17.65;7.10;;;8.10;99.90;;;;;;5118564;27;20030;-49
2022/11/25 09:35:21;;;;;;;15.50;6.35;;;8.30;99.90;;;;;;5117022;27;20126;-46
2022/11/25 09:37:46;;;;;;;15.77;5.32;;;8.70;99.90;;;;;;5120409;27;20108;-50
2022/11/25 09:40:43;;;;;;;9.30;4.72;;;8.70;99.90;;;;;;5101213;27;20190;-47
2022/11/25 09:49:37;;;;;;;11.30;4.75;;;8.50;99.90;;;;;;5118267;27;20084;-50
2022/11/25 09:52:22;;;;;;;11.57;4.30;;;8.70;99.90;;;;;;5092749;27;20043;-48
2022/11/25 09:54:54;;;;;;;;;;;9.00;99.90;;;;;;5117150;27;20043;-48
2022/11/25 09:57:30;;;;;;;11.52;4.65;;;8.80;99.90;;;;;;5099489;27;19918;-47
2022/11/25 10:00:05;;;;;;;13.25;4.10;;;9.40;99.90;;;;;;5118437;27;20148;-48
2022/11/25 10:02:41;;;;;;;9.68;3.65;;;9.50;99.90;;;;;;5117577;27;20114;-49
2022/11/25 10:05:30;;;;;;;12.30;4.22;;;9.80;99.90;;;;;;5118346;27;20035;-47
2022/11/25 10:08:01;;;;;;;11.88;3.67;;;9.90;99.90;;;;;;5107460;27;20035;-48
2022/11/25 10:10:39;;;;;;;7.53;3.03;;;10.20;99.90;;;;;;5118440;27;20072;-50
2022/11/25 10:13:17;;;;;;;7.82;3.10;;;10.50;99.90;;;;;;5100652;27;21826;-48
2022/11/25 10:15:47;;;;;;;7.75;3.50;;;10.60;99.90;;;;;;5116554;27;20042;-50
2022/11/25 10:18:48;;;;;;;13.13;3.47;;;10.60;99.90;;;;;;5119121;27;20043;-48
2022/11/25 10:21:13;;;;;;;6.32;3.00;;;10.60;99.90;;;;;;5104123;27;20051;-49
2022/11/25 10:23:39;;;;;;;12.38;3.78;;;10.80;99.90;;;;;;5068224;28;20501;-49
2022/11/25 10:26:16;;;;;;;10.02;3.50;;;10.90;99.90;;;;;;5119202;28;20039;-47
2022/11/25 10:28:50;;;;;;;9.90;3.75;;;11.00;99.90;;;;;;5118480;28;20032;-48
2022/11/25 10:31:16;;;;;;;;;;;11.10;99.90;;;;;;5119666;28;20087;-47
2022/11/25 10:33:46;;;;;;;8.35;3.13;;;11.30;99.90;;;;;;5119608;28;19998;-50
2022/11/25 10:36:26;;;;;;;9.25;3.20;;;11.20;99.90;;;;;;5114663;28;20508;-46
2022/11/25 10:38:54;;;;;;;8.88;2.80;;;11.30;99.90;;;;;;5118927;28;20096;-48
2022/11/25 10:41:24;;;;;;;13.25;3.83;;;11.40;99.90;;;;;;5117245;28;20031;-48
2022/11/25 10:43:50;;;;;;;9.32;2.60;;;11.60;99.90;;;;;;5119479;28;20051;-46
2022/11/25 10:46:52;;;;;;;11.05;3.28;;;11.50;99.90;;;;;;5121517;27;20100;-48
2022/11/25 10:49:28;;;;;;;11.77;3.38;;;11.50;99.90;;;;;;5119259;27;20067;-47
2022/11/25 10:51:56;;;;;;;10.82;3.15;;;11.40;99.90;;;;;;5111213;27;20031;-48
2022/11/25 10:54:27;;;;;;;16.00;3.17;;;11.30;99.90;;;;;;5109271;27;20126;-47
2022/11/25 10:56:58;;;;;;;11.30;3.38;;;11.70;99.90;;;;;;5123086;27;20090;-48
2022/11/25 10:59:34;;;;;;;10.15;2.95;;;11.20;99.90;;;;;;5122089;27;20118;-46
2022/11/25 11:02:15;;;;;;;12.60;3.40;;;11.20;99.90;;;;;;5115143;27;20038;-46
2022/11/25 11:05:15;;;;;;;12.00;3.42;;;11.30;99.90;;;;;;5121438;27;20027;-47
2022/11/25 11:07:43;;;;;;;12.63;3.65;;;11.30;99.90;;;;;;5117402;27;20031;-48
2022/11/25 11:10:21;;;;;;;20.08;4.25;;;11.40;99.90;;;;;;5117506;27;20554;-49
2022/11/25 11:12:59;;;;;;;9.82;2.90;;;11.70;99.90;;;;;;5119480;27;20031;-48
2022/11/25 11:15:31;;;;;;;13.82;3.38;;;12.00;99.90;;;;;;5118321;27;20032;-49
2022/11/25 11:17:59;;;;;;;8.20;2.83;;;12.20;99.90;;;;;;5118908;27;20402;-46
2022/11/25 11:20:30;;;;;;;17.60;3.22;;;12.40;99.90;;;;;;5101952;27;20039;-47
2022/11/25 11:23:01;;;;;;;11.65;3.22;;;12.40;99.90;;;;;;5120017;27;20038;-46
2022/11/25 11:25:35;;;;;;;10.50;3.33;;;12.50;99.90;;;;;;5101219;27;20142;-46
2022/11/25 11:28:04;;;;;;;9.65;3.10;;;13.40;99.90;;;;;;5118527;27;20550;-45
2022/11/25 11:30:32;;;;;;;9.65;3.33;;;12.90;99.90;;;;;;5119935;27;20447;-47
2022/11/25 11:33:25;;;;;;;9.93;3.20;;;12.90;99.90;;;;;;5120538;27;20044;-47
2022/11/25 11:36:06;;;;;;;11.07;3.35;;;12.90;99.90;;;;;;5117776;27;20032;-50
2022/11/25 11:38:44;;;;;;;13.15;3.22;;;12.90;99.90;;;;;;5118520;27;20033;-48
2022/11/25 11:41:22;;;;;;;12.90;3.20;;;12.90;99.90;;;;;;5122153;27;20471;-46
2022/11/25 11:44:24;;;;;;;11.13;3.35;;;12.90;99.90;;;;;;5098491;27;20123;-49
2022/11/25 11:46:58;;;;;;;9.85;3.05;;;12.70;99.90;;;;;;5057845;27;20050;-48
2022/11/25 11:49:36;;;;;;;10.65;3.42;;;12.80;99.90;;;;;;5117813;27;20075;-47
2022/11/25 11:52:09;;;;;;;13.25;3.25;;;12.80;99.90;;;;;;5101394;27;20031;-47
2022/11/25 11:55:00;;;;;;;12.65;3.20;;;12.80;99.90;;;;;;5116967;27;20035;-47
2022/11/25 11:57:32;;;;;;;13.02;3.58;;;13.00;99.90;;;;;;5119154;27;20390;-45
2022/11/25 12:00:07;;;;;;;9.20;3.30;;;12.90;99.90;;;;;;5082929;27;20062;-49
2022/11/25 12:02:33;;;;;;;13.48;3.58;;;12.80;99.90;;;;;;5117846;27;20112;-47
2022/11/25 12:05:05;;;;;;;16.85;3.63;;;12.90;99.90;;;;;;5117459;27;20707;-47
2022/11/25 12:07:35;;;;;;;8.35;3.13;;;13.00;99.90;;;;;;5118264;27;20043;-49
2022/11/25 12:10:16;;;;;;;9.63;2.83;;;13.00;99.90;;;;;;5120299;27;20582;-48
2022/11/25 12:12:52;;;;;;;11.63;2.83;;;12.80;99.90;;;;;;5118881;27;20175;-51
2022/11/25 12:15:43;;;;;;;12.25;3.08;;;13.40;99.90;;;;;;5118280;27;20493;-49
2022/11/25 12:18:32;;;;;;;12.88;3.05;;;12.60;99.90;;;;;;5102763;27;20827;-46
2022/11/25 12:21:02;;;;;;;13.05;2.80;;;12.70;99.90;;;;;;5126876;27;20046;-48
2022/11/25 12:24:06;;;;;;;14.27;3.42;;;12.60;99.90;;;;;;5128185;27;20497;-47
2022/11/25 12:26:48;;;;;;;12.85;3.50;;;12.70;99.90;;;;;;5045269;28;21071;-49
2022/11/25 12:29:31;;;;;;;10.85;2.97;;;12.90;99.90;;;;;;5048244;28;20574;-46
2022/11/25 12:32:41;;;;;;;11.52;3.05;;;13.00;99.90;;;;;;5105983;27;20112;-47
2022/11/25 12:35:09;;;;;;;11.75;2.75;;;13.10;99.90;;;;;;5104358;27;20043;-48
2022/11/25 12:38:01;;;;;;;11.85;3.13;;;13.30;99.90;;;;;;5131778;27;20046;-50
2022/11/25 12:40:44;;;;;;;15.10;3.08;;;13.30;99.90;;;;;;5131931;27;20031;-47
2022/11/25 12:43:40;;;;;;;10.32;2.65;;;13.40;99.90;;;;;;5131226;27;20031;-49
2022/11/25 12:46:19;;;;;;;12.73;2.85;;;13.50;99.90;;;;;;5113392;27;20050;-47
2022/11/25 12:48:45;;;;;;;16.40;3.15;;;13.40;99.90;;;;;;5132102;27;20041;-49
2022/11/25 12:51:33;;;;;;;13.15;3.03;;;13.40;99.90;;;;;;5131944;27;20030;-50
2022/11/25 12:54:28;;;;;;;14.15;2.85;;;13.40;99.90;;;;;;5131294;27;20037;-47
2022/11/25 12:57:06;;;;;;;14.35;2.92;;;13.50;99.90;;;;;;5091055;27;20078;-47
2022/11/25 12:59:34;;;;;;;11.95;3.28;;;13.50;99.90;;;;;;5113263;27;20046;-46
2022/11/25 13:02:27;;;;;;;14.07;3.10;;;13.60;99.90;;;;;;5113203;27;20038;-47
2022/11/25 13:05:16;;;;;;;12.60;2.97;;;13.70;99.90;;;;;;5131513;27;20070;-46
2022/11/25 13:08:14;;;;;;;12.20;2.97;;;13.80;99.90;;;;;;5116295;27;20134;-46
2022/11/25 13:10:59;;;;;;;15.25;2.97;;;13.70;99.90;;;;;;5105744;27;20039;-46
2022/11/25 13:13:59;;;;;;;11.38;2.75;;;13.60;99.90;;;;;;5113325;27;20078;-46